Time;durP1;ratioP1;P1;durP2;ratioP2;P2;SDS_P1;SDS_P2;PMS_P1;PMS_P2;Temp;Humidity;BMP_temperature;BMP_pressure;BME280_temperature;BME280_humidity;BME280_pressure;Samples;Min_cycle;Max_cycle;Signal;HPM_P1;HPM_P2
2021/12/24 00:00:26;;;;;;;4.70;3.67;;;8.00;99.90;;;;;;4937276;29;20981;-67
2021/12/24 00:02:54;;;;;;;5.27;4.13;;;8.00;99.90;;;;;;4937294;29;20190;-67
2021/12/24 00:05:21;;;;;;;4.40;4.00;;;8.00;99.90;;;;;;4936888;29;20166;-67
2021/12/24 00:07:46;;;;;;;5.03;3.80;;;8.10;99.90;;;;;;4937024;29;20422;-67
2021/12/24 00:10:13;;;;;;;5.70;4.90;;;8.10;99.90;;;;;;4937200;29;20437;-67
2021/12/24 00:12:44;;;;;;;5.57;4.60;;;8.10;99.90;;;;;;4937030;29;20202;-67
2021/12/24 00:15:29;;;;;;;5.17;4.43;;;8.10;99.90;;;;;;4936690;29;20413;-67
2021/12/24 00:18:04;;;;;;;7.30;4.00;;;8.10;99.90;;;;;;4936914;29;20448;-67
2021/12/24 00:36:37;;;;;;;4.50;3.70;;;8.40;99.90;;;;;;4936316;29;20433;-67
2021/12/24 00:39:02;;;;;;;3.80;3.43;;;8.40;99.90;;;;;;4936552;29;20426;-67
2021/12/24 00:41:28;;;;;;;4.90;4.17;;;8.40;99.90;;;;;;4936374;29;20714;-67
2021/12/24 00:43:53;;;;;;;4.47;3.60;;;8.40;99.90;;;;;;4936487;29;20181;-67
2021/12/24 00:46:19;;;;;;;8.50;4.13;;;8.40;99.90;;;;;;4936202;29;20174;-67
2021/12/24 00:48:46;;;;;;;4.47;3.70;;;8.40;99.90;;;;;;4936411;29;20176;-67
2021/12/24 00:51:32;;;;;;;3.93;3.43;;;8.40;99.90;;;;;;4936206;29;20194;-67
2021/12/24 00:56:41;;;;;;;4.13;3.63;;;8.50;99.90;;;;;;4935998;29;20452;-67
2021/12/24 00:59:07;;;;;;;4.00;3.60;;;8.50;99.90;;;;;;4934967;29;20433;-67
2021/12/24 01:01:33;;;;;;;5.33;3.90;;;8.50;99.90;;;;;;4936108;29;20762;-67
2021/12/24 01:03:59;;;;;;;3.70;3.40;;;8.60;99.90;;;;;;4936045;29;20174;-67
2021/12/24 01:06:24;;;;;;;4.77;4.37;;;8.60;99.90;;;;;;4935829;29;20451;-67
2021/12/24 01:08:50;;;;;;;4.30;3.90;;;8.60;99.90;;;;;;4936065;29;20174;-67
2021/12/24 01:11:15;;;;;;;4.27;3.33;;;8.60;99.90;;;;;;4934546;29;20295;-67
2021/12/24 01:13:41;;;;;;;3.90;3.60;;;8.70;99.90;;;;;;4935643;29;20245;-67
2021/12/24 01:16:18;;;;;;;4.00;3.60;;;8.70;99.90;;;;;;4935677;29;20538;-67
2021/12/24 01:19:00;;;;;;;3.97;3.57;;;8.70;99.90;;;;;;4935952;29;20644;-67
2021/12/24 01:21:45;;;;;;;4.70;3.23;;;8.60;99.90;;;;;;4935806;29;20461;-67
2021/12/24 01:24:17;;;;;;;3.80;3.40;;;8.60;99.90;;;;;;4935790;29;20496;-67
2021/12/24 01:27:06;;;;;;;5.20;3.63;;;8.50;99.90;;;;;;4935569;29;20449;-67
2021/12/24 01:37:55;;;;;;;4.90;3.80;;;8.30;99.90;;;;;;4935198;29;20817;-67
2021/12/24 01:40:38;;;;;;;3.97;3.20;;;8.40;99.90;;;;;;4935449;29;20573;-67
2021/12/24 01:43:03;;;;;;;4.40;3.13;;;8.40;99.90;;;;;;4935648;29;20417;-67
2021/12/24 01:45:32;;;;;;;3.00;2.70;;;8.40;99.90;;;;;;4935230;29;20440;-67
2021/12/24 01:48:09;;;;;;;5.00;3.90;;;8.40;99.90;;;;;;4935393;29;20184;-67
2021/12/24 01:50:38;;;;;;;3.97;3.33;;;8.40;99.90;;;;;;4934016;29;20436;-67
2021/12/24 01:53:06;;;;;;;4.80;3.60;;;8.40;99.90;;;;;;4935281;29;20861;-66
2021/12/24 01:55:33;;;;;;;4.73;3.33;;;8.30;99.90;;;;;;4934945;29;20436;-67
2021/12/24 01:57:58;;;;;;;6.67;5.33;;;8.30;99.90;;;;;;4935325;29;20440;-67
2021/12/24 02:00:31;;;;;;;4.20;3.20;;;8.30;99.90;;;;;;4935116;29;20457;-67
2021/12/24 02:02:57;;;;;;;5.80;3.77;;;8.30;99.90;;;;;;4935169;29;20166;-67
2021/12/24 02:05:23;;;;;;;4.70;3.50;;;8.30;99.90;;;;;;4934769;29;20421;-67
2021/12/24 02:07:50;;;;;;;4.70;3.40;;;8.20;99.90;;;;;;4935055;29;20807;-67
2021/12/24 02:10:17;;;;;;;4.37;3.83;;;8.20;99.90;;;;;;4934908;29;20947;-67
2021/12/24 02:12:44;;;;;;;3.80;3.13;;;8.20;99.90;;;;;;4934935;29;20464;-67
2021/12/24 02:15:19;;;;;;;3.37;3.07;;;8.20;99.90;;;;;;4934792;29;20436;-67
2021/12/24 02:18:05;;;;;;;3.63;3.33;;;8.20;99.90;;;;;;4934999;29;20429;-67
2021/12/24 02:28:44;;;;;;;4.93;3.77;;;8.20;99.90;;;;;;4934893;29;20955;-67
2021/12/24 02:31:23;;;;;;;4.23;3.93;;;8.20;99.90;;;;;;4934753;29;20532;-67
2021/12/24 02:33:49;;;;;;;4.10;3.73;;;8.20;99.90;;;;;;4934741;29;20417;-67
2021/12/24 02:36:15;;;;;;;5.20;2.80;;;8.20;99.90;;;;;;4934456;29;21023;-67
2021/12/24 02:38:42;;;;;;;4.23;3.50;;;8.20;99.90;;;;;;4934784;29;20181;-67
2021/12/24 02:41:10;;;;;;;4.43;3.20;;;8.20;99.90;;;;;;4934417;29;20524;-67
2021/12/24 02:43:36;;;;;;;4.13;3.80;;;8.20;99.90;;;;;;4934665;29;20417;-67
2021/12/24 02:46:10;;;;;;;4.10;3.70;;;8.20;99.90;;;;;;4934376;29;20417;-67
2021/12/24 02:53:59;;;;;;;3.93;3.47;;;8.30;99.90;;;;;;4938558;29;20536;-67
2021/12/24 02:56:36;;;;;;;4.60;4.20;;;8.20;99.90;;;;;;4938203;29;20429;-67
2021/12/24 02:59:13;;;;;;;3.57;3.20;;;8.20;99.90;;;;;;4938546;29;20429;-67
2021/12/24 03:01:45;;;;;;;4.27;3.27;;;8.20;99.90;;;;;;4938287;29;20472;-67
2021/12/24 03:04:12;;;;;;;3.90;3.20;;;8.20;99.90;;;;;;4938483;29;20508;-67
2021/12/24 03:06:40;;;;;;;4.27;3.27;;;8.20;99.90;;;;;;4938175;29;20417;-67
2021/12/24 03:09:09;;;;;;;7.53;3.60;;;8.20;99.90;;;;;;4938257;29;21026;-67
2021/12/24 03:11:36;;;;;;;3.77;3.07;;;8.20;99.90;;;;;;4938046;29;20497;-67
2021/12/24 03:14:03;;;;;;;4.30;2.70;;;8.20;99.90;;;;;;4937942;29;20429;-67
2021/12/24 03:16:29;;;;;;;3.83;3.50;;;8.20;99.90;;;;;;4937770;29;20425;-67
2021/12/24 03:18:55;;;;;;;3.97;3.57;;;8.20;99.90;;;;;;4938119;29;20437;-67
2021/12/24 03:21:27;;;;;;;3.90;3.60;;;8.20;99.90;;;;;;4937933;29;20691;-67
2021/12/24 03:26:34;;;;;;;3.90;3.10;;;8.20;99.90;;;;;;4937670;29;20412;-67
2021/12/24 03:28:59;;;;;;;5.10;3.47;;;8.20;99.90;;;;;;4937908;29;20886;-67
2021/12/24 03:31:25;;;;;;;4.47;3.57;;;8.10;99.90;;;;;;4937870;29;20480;-67
2021/12/24 03:33:53;;;;;;;6.33;3.03;;;8.10;99.90;;;;;;4937849;29;20189;-67
2021/12/24 03:36:20;;;;;;;3.80;3.50;;;8.10;99.90;;;;;;4937570;29;20440;-67
2021/12/24 03:38:46;;;;;;;4.63;3.27;;;8.00;99.90;;;;;;4937699;29;20431;-67
2021/12/24 03:41:12;;;;;;;4.03;3.47;;;8.00;99.90;;;;;;4937662;29;21039;-67
2021/12/24 03:43:37;;;;;;;5.83;3.80;;;8.00;99.90;;;;;;4937684;29;20189;-67
2021/12/24 03:46:08;;;;;;;4.40;3.63;;;8.10;99.90;;;;;;4937327;29;20173;-67
2021/12/24 03:56:28;;;;;;;5.20;4.40;;;8.20;99.90;;;;;;4937182;29;20918;-67
2021/12/24 03:58:53;;;;;;;5.50;5.00;;;8.20;99.90;;;;;;4937040;29;21130;-67
2021/12/24 04:01:19;;;;;;;4.70;3.73;;;8.20;99.90;;;;;;4937123;29;20472;-67
2021/12/24 04:03:45;;;;;;;7.00;3.60;;;8.10;99.90;;;;;;4937319;29;20173;-67
2021/12/24 04:06:10;;;;;;;3.83;3.00;;;8.20;99.90;;;;;;4936850;29;20421;-67
2021/12/24 04:08:36;;;;;;;3.33;2.83;;;8.20;99.90;;;;;;4937090;29;20177;-67
2021/12/24 04:11:02;;;;;;;3.83;3.43;;;8.20;99.90;;;;;;4936986;29;20220;-67
2021/12/24 04:13:27;;;;;;;4.30;3.90;;;8.20;99.90;;;;;;4937201;29;20252;-67
2021/12/24 04:15:53;;;;;;;3.90;3.03;;;8.20;99.90;;;;;;4936451;29;20174;-67
2021/12/24 04:19:20;;;;;;;4.73;3.43;;;8.20;99.90;;;;;;4937528;29;20178;-66
2021/12/24 04:26:35;;;;;;;4.10;3.67;;;8.30;99.90;;;;;;4936867;29;20484;-67
2021/12/24 04:29:01;;;;;;;5.00;3.93;;;8.30;99.90;;;;;;4936753;29;20429;-67
2021/12/24 04:31:40;;;;;;;4.53;3.47;;;8.20;99.90;;;;;;4936724;29;20455;-66
2021/12/24 04:34:06;;;;;;;4.17;3.67;;;8.20;99.90;;;;;;4936800;29;20519;-66
2021/12/24 05:03:41;;;;;;;4.17;3.00;;;8.10;99.90;;;;;;4921349;29;20430;-66
2021/12/24 05:07:18;;;;;;;3.97;3.07;;;8.10;99.90;;;;;;4935891;29;20422;-66
2021/12/24 05:09:11;;;;;;;4.47;3.07;;;8.10;99.90;;;;;;4927201;29;20428;-66
2021/12/24 05:11:37;;;;;;;5.40;3.40;;;8.10;99.90;;;;;;4935262;29;20469;-66
2021/12/24 05:14:03;;;;;;;6.10;3.73;;;8.10;99.90;;;;;;4935893;29;20449;-66
2021/12/24 05:16:44;;;;;;;4.27;3.87;;;8.10;99.90;;;;;;4935658;29;20428;-66
2021/12/24 05:21:54;;;;;;;4.33;3.50;;;8.10;99.90;;;;;;4935751;29;20476;-66
2021/12/24 05:24:23;;;;;;;4.60;3.10;;;8.10;99.90;;;;;;4935755;29;20453;-67
2021/12/24 05:26:54;;;;;;;3.00;2.70;;;8.10;99.90;;;;;;4935471;29;20930;-66
2021/12/24 05:29:21;;;;;;;3.97;3.40;;;8.10;99.90;;;;;;4935698;29;21008;-67
2021/12/24 05:31:46;;;;;;;3.43;3.13;;;8.10;99.90;;;;;;4935745;29;20858;-66
2021/12/24 05:34:14;;;;;;;4.53;3.73;;;8.20;99.90;;;;;;4935647;29;20425;-66
2021/12/24 05:36:40;;;;;;;4.20;3.77;;;8.30;99.90;;;;;;4935337;29;20173;-67
2021/12/24 05:39:06;;;;;;;4.33;3.80;;;8.50;99.90;;;;;;4935546;29;20512;-66
2021/12/24 05:41:31;;;;;;;3.77;3.47;;;8.60;99.90;;;;;;4935362;29;20469;-67
2021/12/24 05:43:59;;;;;;;5.63;3.80;;;8.70;99.90;;;;;;4935452;29;20174;-66
2021/12/24 05:46:25;;;;;;;5.33;3.90;;;8.90;99.90;;;;;;4935205;29;20297;-67
2021/12/24 05:48:51;;;;;;;8.43;4.17;;;8.90;99.90;;;;;;4935348;29;20939;-66
2021/12/24 05:51:17;;;;;;;4.70;3.40;;;8.90;99.90;;;;;;4935307;29;20444;-66
2021/12/24 05:53:42;;;;;;;5.63;3.00;;;8.90;99.90;;;;;;4935296;29;20186;-66
2021/12/24 05:56:08;;;;;;;4.20;3.80;;;8.90;99.90;;;;;;4934902;29;20672;-67
2021/12/24 05:58:34;;;;;;;7.53;4.80;;;9.00;99.90;;;;;;4935212;29;20177;-66
2021/12/24 06:00:59;;;;;;;4.47;3.53;;;9.00;99.90;;;;;;4935078;29;20284;-67
2021/12/24 06:03:25;;;;;;;3.60;3.30;;;9.00;99.90;;;;;;4935276;29;20601;-66
2021/12/24 06:05:51;;;;;;;3.90;3.50;;;8.90;99.90;;;;;;4934856;29;20252;-67
2021/12/24 06:08:16;;;;;;;4.03;3.63;;;9.00;99.90;;;;;;4935171;29;20225;-67
2021/12/24 06:10:42;;;;;;;5.00;3.73;;;9.00;99.90;;;;;;4934972;29;20240;-67
2021/12/24 06:13:08;;;;;;;5.07;3.67;;;9.00;99.90;;;;;;4935018;29;20224;-66
2021/12/24 06:15:49;;;;;;;4.83;3.60;;;9.00;99.90;;;;;;4934779;29;20177;-66
2021/12/24 06:18:47;;;;;;;3.47;3.17;;;9.00;99.90;;;;;;4935054;29;20874;-66
2021/12/24 06:21:07;;;;;;;5.80;4.60;;;9.00;99.90;;;;;;4932653;29;21118;-67
2021/12/24 06:23:33;;;;;;;3.90;3.60;;;9.00;99.90;;;;;;4934909;29;20421;-66
2021/12/24 06:26:01;;;;;;;5.60;4.37;;;9.10;99.90;;;;;;4934573;29;20452;-66
2021/12/24 06:28:27;;;;;;;4.63;3.97;;;9.10;99.90;;;;;;4934804;29;20460;-66
2021/12/24 06:30:54;;;;;;;3.97;3.43;;;9.10;99.90;;;;;;4934665;29;20444;-66
2021/12/24 06:33:20;;;;;;;3.90;3.50;;;9.10;99.90;;;;;;4934823;29;20460;-66
2021/12/24 06:35:46;;;;;;;6.77;4.80;;;9.00;99.90;;;;;;4934541;29;20857;-67
2021/12/24 06:38:12;;;;;;;6.43;4.00;;;9.00;99.90;;;;;;4934732;29;20512;-66
2021/12/24 06:40:38;;;;;;;6.70;4.80;;;9.10;99.90;;;;;;4934613;29;20209;-67
2021/12/24 06:43:04;;;;;;;3.90;3.60;;;9.10;99.90;;;;;;4934656;29;20763;-66
2021/12/24 06:45:31;;;;;;;6.60;4.07;;;9.10;99.90;;;;;;4934441;29;20193;-66
2021/12/24 06:47:59;;;;;;;9.40;4.47;;;9.10;99.90;;;;;;4934672;29;20181;-67
2021/12/24 06:50:25;;;;;;;4.77;4.23;;;9.10;99.90;;;;;;4934720;29;20811;-66
2021/12/24 06:52:52;;;;;;;4.40;4.00;;;9.10;99.90;;;;;;4934734;29;20480;-66
2021/12/24 06:55:18;;;;;;;4.30;3.90;;;9.10;99.90;;;;;;4934481;29;20471;-66
2021/12/24 06:57:44;;;;;;;4.33;3.50;;;9.10;99.90;;;;;;4934556;29;20413;-67
2021/12/24 07:00:14;;;;;;;3.70;3.40;;;9.10;99.90;;;;;;4934598;29;20785;-67
2021/12/24 07:02:40;;;;;;;4.07;3.73;;;9.00;99.90;;;;;;4934540;29;20441;-66
2021/12/24 07:05:06;;;;;;;4.40;4.00;;;8.90;99.90;;;;;;4934425;29;20931;-67
2021/12/24 07:07:31;;;;;;;5.93;3.00;;;8.80;99.90;;;;;;4934589;29;20170;-66
2021/12/24 07:09:57;;;;;;;5.10;4.60;;;8.70;99.90;;;;;;4934413;29;20181;-66
2021/12/24 07:12:22;;;;;;;4.17;3.77;;;8.60;99.90;;;;;;4934783;29;20189;-68
2021/12/24 07:14:49;;;;;;;4.57;3.67;;;8.60;99.90;;;;;;4934350;29;20206;-67
2021/12/24 07:17:15;;;;;;;6.90;3.73;;;8.60;99.90;;;;;;4934381;29;20176;-67
2021/12/24 07:19:41;;;;;;;4.53;4.13;;;8.60;99.90;;;;;;4934446;29;20465;-66
2021/12/24 07:22:07;;;;;;;5.10;4.63;;;8.60;99.90;;;;;;4934316;29;20500;-66
2021/12/24 07:24:36;;;;;;;4.90;4.50;;;8.60;99.90;;;;;;4934449;29;20181;-66
2021/12/24 07:27:03;;;;;;;6.03;4.70;;;8.60;99.90;;;;;;4934015;29;20481;-66
2021/12/24 07:29:29;;;;;;;6.90;4.93;;;8.50;99.90;;;;;;4934299;29;20496;-66
2021/12/24 07:31:54;;;;;;;5.50;5.00;;;8.50;99.90;;;;;;4934225;29;20448;-67
2021/12/24 07:34:20;;;;;;;7.30;4.63;;;8.60;99.90;;;;;;4935116;29;20472;-67
2021/12/24 07:36:45;;;;;;;5.43;4.93;;;8.60;99.90;;;;;;4937543;29;20282;-66
2021/12/24 07:39:11;;;;;;;5.43;4.20;;;8.60;99.90;;;;;;4937773;29;20182;-66
2021/12/24 07:41:37;;;;;;;9.80;4.47;;;8.50;99.90;;;;;;4937469;29;20220;-66
2021/12/24 07:44:03;;;;;;;5.00;4.60;;;8.40;99.90;;;;;;4937649;29;20257;-66
2021/12/24 07:46:31;;;;;;;6.10;5.00;;;8.40;99.90;;;;;;4937343;29;20212;-66
2021/12/24 07:49:02;;;;;;;5.43;4.93;;;8.40;99.90;;;;;;4937624;29;20426;-66
2021/12/24 07:54:11;;;;;;;6.40;4.73;;;8.40;99.90;;;;;;4937488;29;20472;-66
2021/12/24 07:56:37;;;;;;;6.10;4.37;;;8.30;99.90;;;;;;4937065;29;20413;-66
2021/12/24 07:59:02;;;;;;;5.13;4.30;;;8.30;99.90;;;;;;4937405;29;20577;-66
2021/12/24 08:01:28;;;;;;;5.27;4.70;;;8.30;99.90;;;;;;4937264;29;20198;-66
2021/12/24 08:03:55;;;;;;;6.63;4.03;;;8.40;99.90;;;;;;4937409;29;20178;-66
2021/12/24 08:06:24;;;;;;;4.73;4.23;;;8.40;99.90;;;;;;4937007;29;20202;-66
2021/12/24 08:08:50;;;;;;;4.63;4.23;;;8.40;99.90;;;;;;4937162;29;20426;-66
2021/12/24 08:11:15;;;;;;;5.10;3.87;;;8.40;99.90;;;;;;4936927;29;20512;-66
2021/12/24 08:13:42;;;;;;;4.33;3.93;;;8.40;99.90;;;;;;4937093;29;20256;-66
2021/12/24 08:16:08;;;;;;;6.17;4.10;;;8.40;99.90;;;;;;4936805;29;20177;-66
2021/12/24 08:18:33;;;;;;;5.67;4.53;;;8.50;99.90;;;;;;4937099;29;20459;-66
2021/12/24 08:20:59;;;;;;;4.57;4.17;;;8.50;99.90;;;;;;4937030;29;20995;-66
2021/12/24 08:23:24;;;;;;;4.00;3.60;;;8.50;99.90;;;;;;4936970;29;20166;-67
2021/12/24 08:25:55;;;;;;;4.90;4.40;;;8.50;99.90;;;;;;4936551;29;20184;-66
2021/12/24 08:28:21;;;;;;;6.70;4.50;;;8.60;99.90;;;;;;4936916;29;20165;-66
2021/12/24 08:30:46;;;;;;;4.93;3.50;;;8.60;99.90;;;;;;4936993;29;20418;-66
2021/12/24 08:33:15;;;;;;;4.20;3.80;;;8.60;99.90;;;;;;4936850;29;20589;-66
2021/12/24 08:35:40;;;;;;;4.90;4.33;;;8.70;99.90;;;;;;4936565;29;20180;-66
2021/12/24 08:38:06;;;;;;;5.17;4.30;;;8.70;99.90;;;;;;4936669;29;20938;-66
2021/12/24 08:40:31;;;;;;;4.63;4.23;;;8.80;99.90;;;;;;4936496;29;20201;-66
2021/12/24 08:42:57;;;;;;;7.07;4.47;;;8.80;99.90;;;;;;4936641;29;20551;-67
2021/12/24 08:45:22;;;;;;;6.17;4.00;;;8.80;99.90;;;;;;4935773;29;20177;-67
2021/12/24 08:47:48;;;;;;;9.33;4.30;;;8.80;99.90;;;;;;4936189;29;20173;-66
2021/12/24 08:50:14;;;;;;;6.90;4.20;;;8.80;99.90;;;;;;4936501;29;20177;-66
2021/12/24 08:52:42;;;;;;;7.70;4.27;;;8.90;99.90;;;;;;4936336;29;20232;-66
2021/12/24 08:55:09;;;;;;;4.93;4.43;;;8.90;99.90;;;;;;4936355;29;20188;-66
2021/12/24 08:57:35;;;;;;;4.67;4.20;;;8.90;99.90;;;;;;4936409;29;20927;-66
2021/12/24 09:00:00;;;;;;;4.60;4.20;;;8.90;99.90;;;;;;4936330;29;20492;-66
2021/12/24 09:02:26;;;;;;;5.67;4.67;;;8.90;99.90;;;;;;4936155;29;20687;-67
2021/12/24 09:04:51;;;;;;;5.40;4.87;;;8.90;99.90;;;;;;4936139;29;20636;-66
2021/12/24 09:07:17;;;;;;;6.60;4.80;;;8.90;99.90;;;;;;4935854;29;20228;-66
2021/12/24 09:09:42;;;;;;;7.07;5.57;;;8.90;99.90;;;;;;4936003;29;20173;-66
2021/12/24 09:12:08;;;;;;;5.57;4.13;;;8.80;99.90;;;;;;4935925;29;20198;-66
2021/12/24 09:14:34;;;;;;;4.00;3.60;;;8.80;99.90;;;;;;4935780;29;20174;-67
2021/12/24 09:17:02;;;;;;;3.93;3.60;;;8.80;99.90;;;;;;4935716;29;20181;-66
2021/12/24 09:19:29;;;;;;;3.90;3.40;;;8.70;99.90;;;;;;4935917;29;20178;-67
2021/12/24 09:21:56;;;;;;;4.40;4.00;;;8.70;99.90;;;;;;4935717;29;21037;-66
2021/12/24 09:24:24;;;;;;;4.53;4.10;;;8.70;99.90;;;;;;4935799;29;20508;-66
2021/12/24 09:26:54;;;;;;;3.80;3.50;;;8.70;99.90;;;;;;4935499;29;20456;-66
2021/12/24 09:29:20;;;;;;;6.00;3.97;;;8.70;99.90;;;;;;4935779;29;20931;-66
2021/12/24 09:31:45;;;;;;;4.73;4.23;;;8.70;99.90;;;;;;4935575;29;20442;-66
2021/12/24 09:34:11;;;;;;;6.27;5.33;;;8.70;99.90;;;;;;4935562;29;20180;-67
2021/12/24 09:36:38;;;;;;;6.17;4.50;;;8.60;99.90;;;;;;4935267;29;20198;-67
2021/12/24 09:39:05;;;;;;;5.20;4.50;;;8.50;99.90;;;;;;4935564;29;20891;-67
2021/12/24 09:41:32;;;;;;;7.63;5.87;;;8.40;99.90;;;;;;4935310;29;20564;-67
2021/12/24 09:43:59;;;;;;;5.00;4.53;;;8.30;99.90;;;;;;4935561;29;20933;-66
2021/12/24 09:46:26;;;;;;;5.83;4.73;;;8.30;99.90;;;;;;4935203;29;20428;-67
2021/12/24 09:48:52;;;;;;;5.90;4.77;;;8.20;99.90;;;;;;4935334;29;20456;-67
2021/12/24 09:51:19;;;;;;;10.43;5.20;;;8.20;99.90;;;;;;4935262;29;20481;-66
2021/12/24 09:53:44;;;;;;;6.80;4.93;;;8.20;99.90;;;;;;4935249;29;20237;-67
2021/12/24 09:56:10;;;;;;;6.00;4.70;;;8.20;99.90;;;;;;4934965;29;20931;-67
2021/12/24 09:58:35;;;;;;;5.37;4.63;;;8.20;99.90;;;;;;4935065;29;20205;-66
2021/12/24 10:01:01;;;;;;;8.37;6.50;;;8.20;99.90;;;;;;4935084;29;20225;-66
2021/12/24 10:03:33;;;;;;;7.80;4.57;;;8.20;99.90;;;;;;4935124;29;20209;-66
2021/12/24 10:05:59;;;;;;;11.97;5.23;;;8.20;99.90;;;;;;4934892;29;20510;-66
2021/12/24 10:08:26;;;;;;;6.53;4.70;;;8.20;99.90;;;;;;4935085;29;20525;-66
2021/12/24 10:11:00;;;;;;;8.43;4.87;;;8.20;99.90;;;;;;4934931;29;20461;-66
2021/12/24 10:13:34;;;;;;;5.37;4.87;;;8.20;99.90;;;;;;4935150;29;20958;-66
2021/12/24 10:16:04;;;;;;;4.73;4.27;;;8.20;99.90;;;;;;4934693;29;20423;-66
2021/12/24 10:18:41;;;;;;;10.50;4.47;;;8.20;99.90;;;;;;4935518;29;20429;-67
2021/12/24 10:21:20;;;;;;;4.87;4.43;;;8.30;99.90;;;;;;4934854;29;20460;-67
2021/12/24 10:23:50;;;;;;;13.03;6.07;;;8.30;99.90;;;;;;4934998;29;20421;-67
2021/12/24 10:26:23;;;;;;;4.80;4.27;;;8.30;99.90;;;;;;4934669;29;20799;-67
2021/12/24 10:29:00;;;;;;;8.07;5.00;;;8.30;99.90;;;;;;4934974;29;20417;-67
2021/12/24 10:31:35;;;;;;;7.77;6.50;;;8.30;99.90;;;;;;4934860;29;21005;-67
2021/12/24 10:34:16;;;;;;;5.77;4.13;;;8.30;99.90;;;;;;4934868;29;20512;-67
2021/12/24 10:36:55;;;;;;;4.97;4.53;;;8.30;99.90;;;;;;4934468;29;20433;-67
2021/12/24 10:39:25;;;;;;;6.93;5.10;;;8.30;99.90;;;;;;4934863;29;20421;-67
2021/12/24 10:41:53;;;;;;;5.10;4.70;;;8.30;99.90;;;;;;4934632;29;20475;-67
2021/12/24 10:44:21;;;;;;;5.53;5.03;;;8.30;99.90;;;;;;4934671;29;20420;-66
2021/12/24 10:47:12;;;;;;;6.07;4.80;;;8.30;99.90;;;;;;4934517;29;20432;-66
2021/12/24 10:55:02;;;;;;;11.43;6.87;;;8.30;99.90;;;;;;4934692;29;20859;-67
2021/12/24 10:57:33;;;;;;;6.93;4.53;;;8.30;99.90;;;;;;4934544;29;20429;-67
2021/12/24 11:00:12;;;;;;;4.57;4.17;;;8.30;99.90;;;;;;4934545;29;20548;-65
2021/12/24 11:02:38;;;;;;;4.50;4.10;;;8.30;99.90;;;;;;4934468;29;20441;-67
2021/12/24 11:05:13;;;;;;;5.53;5.03;;;8.30;99.90;;;;;;4934202;29;20447;-67
2021/12/24 11:07:41;;;;;;;6.87;4.90;;;8.30;99.90;;;;;;4934492;29;20177;-67
2021/12/24 11:10:19;;;;;;;6.80;3.87;;;8.30;99.90;;;;;;4936466;29;20895;-67
2021/12/24 11:12:47;;;;;;;4.33;3.47;;;8.30;99.90;;;;;;4938250;29;20519;-66
2021/12/24 11:15:31;;;;;;;4.00;3.60;;;8.30;99.90;;;;;;4937366;29;20488;-66
2021/12/24 11:18:06;;;;;;;4.33;3.27;;;8.30;99.90;;;;;;4938099;29;20487;-66
2021/12/24 11:20:32;;;;;;;3.80;3.50;;;8.30;99.90;;;;;;4936654;29;20460;-67
2021/12/24 11:23:13;;;;;;;2.80;2.60;;;8.30;99.90;;;;;;4937954;29;20421;-66
2021/12/24 11:25:42;;;;;;;3.50;3.20;;;8.30;99.90;;;;;;4937619;29;20504;-67
2021/12/24 11:28:10;;;;;;;3.43;3.00;;;8.30;99.90;;;;;;4937930;29;20422;-67
2021/12/24 11:30:39;;;;;;;5.00;3.00;;;8.40;99.90;;;;;;4937702;29;20417;-67
2021/12/24 11:33:05;;;;;;;3.03;2.77;;;8.40;99.90;;;;;;4938004;29;20425;-67
2021/12/24 11:35:31;;;;;;;3.80;2.80;;;8.40;99.90;;;;;;4937493;29;20556;-67
2021/12/24 11:37:59;;;;;;;3.10;2.60;;;8.40;99.90;;;;;;4937809;29;20841;-67
2021/12/24 11:40:26;;;;;;;3.10;2.90;;;8.40;99.90;;;;;;4937657;29;20456;-67
2021/12/24 11:42:59;;;;;;;3.37;3.07;;;8.40;99.90;;;;;;4937548;29;20967;-67
2021/12/24 11:45:27;;;;;;;5.47;2.80;;;8.40;99.90;;;;;;4937417;29;20425;-67
2021/12/24 11:47:54;;;;;;;3.30;2.90;;;8.40;99.90;;;;;;4937598;29;20789;-67
2021/12/24 11:50:21;;;;;;;4.03;3.00;;;8.40;99.90;;;;;;4937514;29;20495;-67
2021/12/24 11:52:49;;;;;;;5.70;2.60;;;8.40;99.90;;;;;;4937445;29;20444;-67
2021/12/24 11:55:16;;;;;;;2.87;2.63;;;8.50;99.90;;;;;;4937132;29;20428;-67
2021/12/24 11:58:00;;;;;;;2.87;2.40;;;8.50;99.90;;;;;;4937667;29;20793;-67
2021/12/24 12:00:30;;;;;;;3.97;2.80;;;8.60;99.90;;;;;;4937456;29;20864;-67
2021/12/24 12:02:57;;;;;;;2.67;2.13;;;8.60;99.90;;;;;;4937424;29;20422;-67
2021/12/24 12:05:26;;;;;;;4.43;3.50;;;8.60;99.90;;;;;;4937018;29;20421;-67
2021/12/24 12:08:12;;;;;;;6.13;4.10;;;8.60;99.90;;;;;;4937410;29;20520;-67
2021/12/24 12:10:59;;;;;;;1.83;1.70;;;8.70;99.90;;;;;;4936851;29;20461;-67
2021/12/24 12:13:47;;;;;;;2.80;2.20;;;8.80;99.90;;;;;;4937408;29;21022;-67
2021/12/24 12:16:36;;;;;;;4.53;2.40;;;8.90;99.90;;;;;;4936894;29;20422;-66
2021/12/24 12:19:45;;;;;;;4.70;2.50;;;8.90;99.90;;;;;;4936969;29;20990;-67
2021/12/24 12:22:30;;;;;;;3.07;2.43;;;8.90;99.90;;;;;;4936848;29;20871;-67
2021/12/24 12:25:02;;;;;;;3.07;2.57;;;9.00;99.90;;;;;;4936962;29;20425;-66
2021/12/24 12:27:45;;;;;;;2.63;1.83;;;9.10;99.90;;;;;;4935680;29;20426;-66
2021/12/24 12:30:19;;;;;;;2.30;1.57;;;9.00;99.90;;;;;;4936863;29;20788;-66
2021/12/24 12:32:46;;;;;;;2.27;1.63;;;9.00;99.90;;;;;;4936745;29;21032;-66
2021/12/24 12:35:13;;;;;;;2.17;1.90;;;9.00;99.90;;;;;;4936287;29;20421;-67
2021/12/24 12:37:46;;;;;;;1.70;1.60;;;9.10;99.90;;;;;;4936703;29;20449;-67
2021/12/24 12:40:18;;;;;;;1.67;1.57;;;9.10;99.90;;;;;;4936564;29;20426;-67
2021/12/24 12:42:50;;;;;;;1.83;1.70;;;9.20;99.90;;;;;;4936471;29;20586;-67
2021/12/24 12:45:21;;;;;;;2.20;1.50;;;9.30;99.90;;;;;;4936360;29;20421;-67
2021/12/24 12:47:56;;;;;;;5.83;4.40;;;9.40;99.90;;;;;;4936569;29;20783;-67
2021/12/24 12:50:22;;;;;;;5.23;3.93;;;9.50;99.90;;;;;;4936549;29;20468;-67
2021/12/24 12:52:51;;;;;;;3.03;2.07;;;9.60;99.90;;;;;;4936452;29;20441;-67
2021/12/24 12:55:31;;;;;;;3.60;2.23;;;9.60;99.90;;;;;;4936159;29;20429;-67
2021/12/24 12:58:20;;;;;;;1.30;1.20;;;9.60;99.90;;;;;;4936471;29;20868;-67
2021/12/24 13:01:05;;;;;;;1.50;1.20;;;9.70;99.90;;;;;;4934965;29;20477;-67
2021/12/24 13:03:55;;;;;;;2.67;1.47;;;9.60;99.90;;;;;;4936117;29;20890;-67
2021/12/24 13:06:21;;;;;;;1.90;1.70;;;9.60;99.90;;;;;;4935332;28;20437;-67
2021/12/24 13:08:47;;;;;;;2.60;2.30;;;9.60;99.90;;;;;;4936144;29;20432;-67
2021/12/24 13:11:20;;;;;;;2.23;2.03;;;9.60;99.90;;;;;;4935910;29;20830;-67
2021/12/24 13:13:56;;;;;;;1.77;1.67;;;9.70;99.90;;;;;;4935584;29;20417;-67
2021/12/24 13:16:33;;;;;;;1.90;1.67;;;9.60;99.90;;;;;;4935735;29;20962;-67
2021/12/24 13:19:21;;;;;;;1.67;1.50;;;9.60;99.90;;;;;;4935984;29;21010;-67
2021/12/24 13:24:54;;;;;;;2.40;1.70;;;9.50;99.90;;;;;;4939617;29;20449;-67
2021/12/24 13:27:27;;;;;;;1.53;1.43;;;9.50;99.90;;;;;;4935614;29;20772;-67
2021/12/24 13:30:04;;;;;;;2.27;1.43;;;9.40;99.90;;;;;;4935810;29;20505;-67
2021/12/24 13:32:30;;;;;;;1.50;1.40;;;9.30;99.90;;;;;;4935235;29;20940;-67
2021/12/24 13:34:56;;;;;;;1.43;1.33;;;9.20;99.90;;;;;;4935511;29;20492;-66
2021/12/24 13:37:21;;;;;;;1.50;1.40;;;9.20;99.90;;;;;;4935477;29;20708;-67
2021/12/24 13:39:50;;;;;;;2.53;1.90;;;9.20;99.90;;;;;;4935586;29;20512;-67
2021/12/24 13:42:17;;;;;;;1.97;1.63;;;9.10;99.90;;;;;;4935362;29;20213;-67
2021/12/24 13:44:43;;;;;;;1.50;1.40;;;9.10;99.90;;;;;;4935382;29;20421;-67
2021/12/24 13:47:23;;;;;;;1.57;1.47;;;9.10;99.90;;;;;;4935166;29;20452;-67
2021/12/24 13:55:21;;;;;;;3.03;1.70;;;9.20;99.90;;;;;;4935345;29;20861;-67
2021/12/24 13:57:55;;;;;;;2.20;1.97;;;9.20;99.90;;;;;;4935334;29;20458;-67
2021/12/24 14:00:21;;;;;;;4.13;1.70;;;9.20;99.90;;;;;;4935341;29;20514;-67
2021/12/24 14:02:59;;;;;;;1.93;1.50;;;9.30;99.90;;;;;;4935118;29;20449;-67
2021/12/24 14:05:26;;;;;;;2.00;1.80;;;9.30;99.90;;;;;;4934874;29;20425;-67
2021/12/24 14:08:09;;;;;;;1.73;1.63;;;9.30;99.90;;;;;;4935093;29;20421;-67
2021/12/24 14:10:35;;;;;;;1.70;1.60;;;9.20;99.90;;;;;;4934973;29;20453;-67
2021/12/24 14:13:07;;;;;;;1.47;1.37;;;9.20;99.90;;;;;;4935082;29;20426;-67
2021/12/24 14:15:45;;;;;;;1.90;1.70;;;9.20;99.90;;;;;;4934288;29;20472;-67
2021/12/24 14:24:12;;;;;;;2.53;2.03;;;9.10;99.90;;;;;;4935039;29;20425;-67
2021/12/24 14:26:39;;;;;;;2.10;1.60;;;9.20;99.90;;;;;;4934658;29;20418;-67
2021/12/24 14:29:06;;;;;;;1.90;1.80;;;9.20;99.90;;;;;;4934967;29;20421;-67
2021/12/24 14:31:54;;;;;;;2.83;1.80;;;9.30;99.90;;;;;;4934816;29;21038;-67
2021/12/24 14:34:42;;;;;;;1.60;1.50;;;9.30;99.90;;;;;;4934753;29;20510;-67
2021/12/24 14:37:11;;;;;;;2.20;2.00;;;9.40;99.90;;;;;;4934556;29;20452;-67
2021/12/24 14:39:53;;;;;;;3.30;2.63;;;9.40;99.90;;;;;;4934737;29;20512;-67
2021/12/24 14:42:36;;;;;;;3.03;2.20;;;9.40;99.90;;;;;;4934640;29;20504;-67
2021/12/24 14:45:41;;;;;;;2.83;1.30;;;9.50;99.90;;;;;;4936679;29;20424;-67
2021/12/24 14:48:07;;;;;;;1.87;1.53;;;9.50;99.90;;;;;;4938203;29;21074;-67
2021/12/24 14:50:51;;;;;;;1.50;1.40;;;9.50;99.90;;;;;;4938596;29;20508;-67
2021/12/24 14:53:28;;;;;;;1.37;1.00;;;9.50;99.90;;;;;;4938583;29;20178;-67
2021/12/24 14:55:58;;;;;;;1.43;1.33;;;9.50;99.90;;;;;;4938279;29;20455;-67
2021/12/24 14:58:55;;;;;;;1.43;1.30;;;9.40;99.90;;;;;;4938585;29;20432;-67
2021/12/24 15:01:27;;;;;;;1.50;1.40;;;9.40;99.90;;;;;;4937892;29;20476;-67